createdAt,value
2023-01-13T00:01:09.719Z,1.86
2023-01-13T00:04:31.926Z,1.91
2023-01-13T00:07:53.879Z,2.00
2023-01-13T00:11:15.549Z,2.07
2023-01-13T00:14:37.795Z,2.12
2023-01-13T00:18:01.254Z,2.18
2023-01-13T00:21:24.444Z,2.27
2023-01-13T00:24:46.278Z,2.33
2023-01-13T00:28:10.215Z,2.38
2023-01-13T00:31:32.488Z,2.45
2023-01-13T00:34:55.956Z,2.50
2023-01-13T00:38:20.449Z,2.55
2023-01-13T00:41:59.399Z,2.61
2023-01-13T00:45:21.278Z,2.61
2023-01-13T00:48:43.603Z,2.66
2023-01-13T00:52:07.208Z,2.69
2023-01-13T00:55:31.869Z,2.70
2023-01-13T00:58:53.945Z,2.73
2023-01-13T01:02:15.776Z,2.77
2023-01-13T01:05:37.767Z,2.77
2023-01-13T01:09:01.354Z,2.79
2023-01-13T01:12:23.413Z,2.81
2023-01-13T01:15:45.811Z,2.79
2023-01-13T01:19:08.692Z,2.83
2023-01-13T01:22:30.532Z,2.84
2023-01-13T01:25:53.926Z,2.87
2023-01-13T01:29:16.685Z,2.83
2023-01-13T01:32:38.541Z,2.90
2023-01-13T01:36:02.278Z,2.91
2023-01-13T01:39:26.560Z,2.94
2023-01-13T01:43:07.200Z,2.95
2023-01-13T01:46:30.988Z,2.96
2023-01-13T01:49:52.939Z,3.00
2023-01-13T01:53:20.287Z,3.01
2023-01-13T01:56:45.784Z,3.04
2023-01-13T02:00:10.458Z,3.05
2023-01-13T02:03:32.260Z,3.08
2023-01-13T02:06:55.004Z,3.09
2023-01-13T02:10:19.649Z,3.06
2023-01-13T02:13:41.551Z,3.10
2023-01-13T02:17:23.210Z,3.11
2023-01-13T02:21:09.452Z,3.16
2023-01-13T02:25:02.444Z,3.17
2023-01-13T02:29:02.757Z,3.22
2023-01-13T02:32:30.429Z,3.24
2023-01-13T02:35:58.746Z,3.26
2023-01-13T02:39:26.444Z,3.27
2023-01-13T02:43:12.541Z,3.29
2023-01-13T02:46:39.409Z,3.34
2023-01-13T02:50:06.531Z,3.36
2023-01-13T02:53:35.397Z,3.37
2023-01-13T02:57:00.669Z,3.42
2023-01-13T03:00:24.601Z,3.38
2023-01-13T03:03:47.094Z,3.44
2023-01-13T03:07:14.854Z,3.43
2023-01-13T03:10:49.312Z,3.45
2023-01-13T03:14:22.567Z,3.48
2023-01-13T03:17:50.354Z,3.49
2023-01-13T03:21:20.107Z,3.52
2023-01-13T03:24:48.162Z,3.55
2023-01-13T03:28:18.617Z,3.55
2023-01-13T03:32:03.253Z,3.56
2023-01-13T03:35:30.876Z,3.54
2023-01-13T03:38:55.310Z,3.55
2023-01-13T03:42:22.327Z,3.64
2023-01-13T03:45:47.841Z,3.62
2023-01-13T03:49:14.563Z,3.64
2023-01-13T03:52:39.221Z,3.66
2023-01-13T03:56:08.956Z,3.68
2023-01-13T03:59:37.783Z,3.66
2023-01-13T04:03:06.662Z,3.67
2023-01-13T04:06:38.262Z,3.68
2023-01-13T04:10:04.028Z,3.66
2023-01-13T04:13:30.115Z,3.68
2023-01-13T04:16:53.605Z,3.62
2023-01-13T04:20:15.826Z,3.70
2023-01-13T04:23:37.780Z,3.73
2023-01-13T04:26:59.451Z,3.74
2023-01-13T04:30:21.412Z,3.75
2023-01-13T04:33:44.591Z,3.76
2023-01-13T04:37:06.603Z,3.78
2023-01-13T04:40:28.677Z,3.79
2023-01-13T04:43:50.633Z,3.79
2023-01-13T04:47:12.662Z,3.81
2023-01-13T04:50:36.145Z,3.83
2023-01-13T04:53:58.234Z,3.83
2023-01-13T04:57:19.809Z,3.83
2023-01-13T05:00:41.989Z,3.83
2023-01-13T05:04:03.821Z,3.85
2023-01-13T05:07:27.239Z,3.87
2023-01-13T05:10:49.476Z,3.85
2023-01-13T05:14:28.575Z,3.84
2023-01-13T05:17:51.421Z,3.82
2023-01-13T05:21:33.824Z,3.87
2023-01-13T05:25:14.541Z,3.87
2023-01-13T05:28:36.681Z,3.88
2023-01-13T05:31:58.342Z,3.86
2023-01-13T05:35:20.798Z,3.85
2023-01-13T05:38:43.201Z,3.84
2023-01-13T05:42:32.889Z,3.86
2023-01-13T05:45:58.862Z,3.85
2023-01-13T05:49:21.114Z,3.84
2023-01-13T05:52:43.554Z,3.84
2023-01-13T05:56:06.112Z,3.83
2023-01-13T05:59:29.253Z,3.82
2023-01-13T06:02:51.273Z,3.82
2023-01-13T06:06:13.131Z,3.81
2023-01-13T06:09:35.130Z,3.80
2023-01-13T06:12:57.261Z,3.79
2023-01-13T06:16:21.199Z,3.75
2023-01-13T06:19:43.905Z,3.65
2023-01-13T06:23:06.301Z,3.71
2023-01-13T06:26:31.301Z,3.70
2023-01-13T06:29:53.225Z,3.67
2023-01-13T06:33:20.624Z,3.68
2023-01-13T06:36:47.073Z,3.67
2023-01-13T06:40:12.001Z,3.65
2023-01-13T06:43:34.195Z,3.67
2023-01-13T06:46:56.284Z,3.65
2023-01-13T06:50:20.348Z,3.65
2023-01-13T06:53:42.348Z,3.65
2023-01-13T06:57:04.364Z,3.64
2023-01-13T07:00:27.424Z,3.66
2023-01-13T07:03:49.407Z,3.67
2023-01-13T07:07:13.287Z,3.70
2023-01-13T07:10:35.803Z,3.70
2023-01-13T07:14:14.975Z,3.71
2023-01-13T07:17:36.834Z,3.72
2023-01-13T07:21:01.059Z,3.70
2023-01-13T07:24:24.471Z,3.71
2023-01-13T07:27:46.469Z,3.71
2023-01-13T07:31:15.713Z,3.72
2023-01-13T07:34:37.557Z,3.71
2023-01-13T07:37:59.354Z,3.73
2023-01-13T07:41:40.402Z,3.71
2023-01-13T07:45:02.718Z,3.73
2023-01-13T07:48:24.872Z,3.75
2023-01-13T07:51:46.577Z,3.74
2023-01-13T07:55:09.759Z,3.75
2023-01-13T07:58:35.025Z,3.75
2023-01-13T08:01:57.327Z,3.77
2023-01-13T08:05:19.523Z,3.78
2023-01-13T08:08:41.380Z,3.80
2023-01-13T08:12:20.229Z,3.81
2023-01-13T08:15:43.756Z,3.83
2023-01-13T08:19:05.803Z,3.84
2023-01-13T08:22:27.896Z,3.84
2023-01-13T08:25:49.965Z,3.83
2023-01-13T08:29:14.641Z,3.85
2023-01-13T08:32:37.885Z,3.86
2023-01-13T08:36:00.089Z,3.84
2023-01-13T08:39:21.735Z,3.89
2023-01-13T08:42:43.583Z,3.92
2023-01-13T08:46:05.705Z,3.91
2023-01-13T08:49:28.991Z,3.92
2023-01-13T08:52:51.325Z,3.95
2023-01-13T08:56:13.643Z,3.97
2023-01-13T08:59:35.625Z,3.94
2023-01-13T09:02:57.788Z,3.94
2023-01-13T09:06:21.237Z,3.94
2023-01-13T09:09:43.577Z,3.96
2023-01-13T09:13:14.303Z,3.93
2023-01-13T09:16:35.941Z,3.94
2023-01-13T09:19:57.964Z,3.94
2023-01-13T09:23:21.325Z,3.97
2023-01-13T09:26:43.347Z,3.94
2023-01-13T09:30:05.870Z,3.95
2023-01-13T09:33:45.171Z,3.92
2023-01-13T09:37:07.894Z,3.92
2023-01-13T09:40:31.070Z,3.94
2023-01-13T09:43:57.389Z,3.93
2023-01-13T09:47:25.891Z,3.87
2023-01-13T09:50:58.598Z,3.91
2023-01-13T09:54:27.172Z,3.88
2023-01-13T09:57:50.104Z,3.93
2023-01-13T10:01:22.869Z,3.90
2023-01-13T10:04:44.562Z,3.97
2023-01-13T10:08:12.696Z,3.96
2023-01-13T10:11:58.073Z,3.95
2023-01-13T10:15:24.405Z,3.94
2023-01-13T10:18:58.346Z,3.94
2023-01-13T10:22:29.231Z,3.93
2023-01-13T10:25:59.605Z,3.91
2023-01-13T10:29:24.979Z,3.93
2023-01-13T10:32:54.004Z,3.92
2023-01-13T10:36:17.471Z,3.91
2023-01-13T10:39:44.396Z,3.91
2023-01-13T10:43:07.635Z,3.90
2023-01-13T10:46:30.526Z,3.90
2023-01-13T10:50:25.458Z,3.90
2023-01-13T10:53:52.747Z,3.90
2023-01-13T10:57:20.045Z,3.90
2023-01-13T11:00:42.229Z,3.93
2023-01-13T11:04:27.965Z,3.93
2023-01-13T11:07:56.416Z,3.88
2023-01-13T11:11:38.306Z,3.88
2023-01-13T11:15:03.781Z,3.85
2023-01-13T11:18:30.909Z,3.83
2023-01-13T11:22:02.087Z,3.82
2023-01-13T11:25:33.061Z,3.78
2023-01-13T11:29:02.171Z,3.78
2023-01-13T11:32:25.950Z,3.75
2023-01-13T11:35:59.814Z,3.73
2023-01-13T11:39:27.560Z,3.69
2023-01-13T11:42:56.068Z,3.65
2023-01-13T11:46:17.901Z,3.57
2023-01-13T11:49:39.991Z,3.55
2023-01-13T11:53:13.587Z,3.45
2023-01-13T11:56:53.210Z,3.57
2023-01-13T12:00:23.341Z,3.55
2023-01-13T12:03:50.614Z,3.50
2023-01-13T12:07:23.000Z,3.47
2023-01-13T12:10:57.153Z,3.46
2023-01-13T12:14:26.643Z,3.44
2023-01-13T12:18:03.616Z,3.43
2023-01-13T12:21:28.371Z,3.41
2023-01-13T12:24:54.616Z,3.39
2023-01-13T12:28:21.864Z,3.43
2023-01-13T12:31:45.327Z,3.40
2023-01-13T12:35:31.225Z,3.38
2023-01-13T12:38:58.903Z,3.37
2023-01-13T12:42:44.966Z,3.33
2023-01-13T12:46:53.228Z,3.32
2023-01-13T12:50:44.605Z,3.29
2023-01-13T12:54:55.026Z,3.26
2023-01-13T12:58:18.428Z,3.25
2023-01-13T13:01:40.596Z,3.25
2023-01-13T13:05:49.400Z,3.21
2023-01-13T13:09:25.090Z,3.21
2023-01-13T13:13:16.745Z,3.22
2023-01-13T13:16:51.821Z,3.21
2023-01-13T13:20:55.071Z,3.19
2023-01-13T13:24:19.666Z,3.20
2023-01-13T13:27:48.060Z,3.20
2023-01-13T13:31:26.319Z,3.24
2023-01-13T13:34:56.702Z,3.24
2023-01-13T13:38:59.618Z,3.20
2023-01-13T13:42:43.374Z,3.11
2023-01-13T13:46:41.539Z,3.23
2023-01-13T13:50:09.172Z,3.19
2023-01-13T13:53:34.649Z,3.16
2023-01-13T13:56:56.572Z,3.17
2023-01-13T14:00:25.418Z,3.17
2023-01-13T14:03:47.251Z,3.11
2023-01-13T14:07:20.654Z,3.11
2023-01-13T14:10:45.054Z,3.11
2023-01-13T14:14:13.682Z,3.11
2023-01-13T14:17:36.886Z,3.07
2023-01-13T14:21:01.291Z,3.05
2023-01-13T14:24:24.951Z,3.03
2023-01-13T14:27:47.023Z,3.02
2023-01-13T14:31:10.993Z,3.00
2023-01-13T14:34:35.335Z,2.98
2023-01-13T14:38:04.376Z,2.95
2023-01-13T14:41:28.930Z,2.91
2023-01-13T14:44:52.627Z,2.89
2023-01-13T14:48:15.866Z,2.88
2023-01-13T14:51:39.032Z,2.82
2023-01-13T14:55:25.004Z,2.89
2023-01-13T14:58:48.308Z,2.85
2023-01-13T15:02:47.033Z,2.83
2023-01-13T15:06:25.542Z,2.84
2023-01-13T15:09:53.754Z,2.83
2023-01-13T15:13:27.097Z,2.84
2023-01-13T15:16:49.074Z,2.80
2023-01-13T15:20:15.250Z,2.78
2023-01-13T15:23:37.226Z,2.78
2023-01-13T15:27:00.441Z,2.74
2023-01-13T15:30:25.066Z,2.77
2023-01-13T15:33:46.920Z,2.75
2023-01-13T15:37:10.239Z,2.69
2023-01-13T15:40:33.761Z,2.73
2023-01-13T15:44:14.604Z,2.72
2023-01-13T15:47:36.896Z,2.72
2023-01-13T15:50:58.892Z,2.73
2023-01-13T15:54:24.638Z,2.74
2023-01-13T15:57:49.826Z,2.71
2023-01-13T16:01:14.148Z,2.72
2023-01-13T16:04:36.029Z,2.73
2023-01-13T16:07:58.083Z,2.74
2023-01-13T16:11:20.121Z,2.73
2023-01-13T16:14:42.053Z,2.70
2023-01-13T16:18:05.876Z,2.72
2023-01-13T16:21:27.972Z,2.77
2023-01-13T16:24:49.991Z,2.77
2023-01-13T16:28:20.188Z,2.77
2023-01-13T16:31:42.405Z,2.77
2023-01-13T16:35:06.391Z,2.77
2023-01-13T16:38:28.170Z,2.72
2023-01-13T16:41:49.986Z,2.75
2023-01-13T16:45:12.670Z,2.77
2023-01-13T16:48:34.823Z,2.78
2023-01-13T16:51:58.376Z,2.78
2023-01-13T16:55:20.580Z,2.77
2023-01-13T16:58:42.420Z,2.78
2023-01-13T17:02:06.498Z,2.79
2023-01-13T17:05:28.663Z,2.80
2023-01-13T17:08:53.088Z,2.80
2023-01-13T17:12:15.109Z,2.80
2023-01-13T17:15:37.222Z,2.83
2023-01-13T17:19:00.004Z,2.85
2023-01-13T17:22:22.736Z,2.84
2023-01-13T17:25:46.198Z,2.88
2023-01-13T17:29:09.516Z,2.90
2023-01-13T17:32:34.298Z,2.90
2023-01-13T17:35:56.196Z,2.92
2023-01-13T17:39:20.607Z,2.93
2023-01-13T17:42:43.558Z,2.96
2023-01-13T17:46:09.276Z,2.95
2023-01-13T17:49:31.680Z,2.98
2023-01-13T17:52:54.755Z,2.98
2023-01-13T17:56:18.871Z,2.88
2023-01-13T17:59:42.810Z,3.05
2023-01-13T18:03:04.887Z,3.07
2023-01-13T18:06:26.932Z,3.09
2023-01-13T18:09:49.085Z,2.93
2023-01-13T18:13:11.064Z,3.11
2023-01-13T18:16:34.387Z,3.05
2023-01-13T18:20:13.906Z,3.19
2023-01-13T18:23:53.834Z,3.20
2023-01-13T18:27:22.887Z,3.22
2023-01-13T18:30:44.729Z,3.12
2023-01-13T18:34:07.850Z,3.25
2023-01-13T18:37:29.785Z,3.27
2023-01-13T18:40:51.707Z,3.30
2023-01-13T18:44:13.427Z,3.27
2023-01-13T18:47:37.186Z,3.33
2023-01-13T18:51:00.474Z,3.34
2023-01-13T18:54:22.743Z,3.35
2023-01-13T18:57:45.143Z,3.38
2023-01-13T19:01:07.267Z,3.40
2023-01-13T19:04:29.281Z,3.42
2023-01-13T19:07:52.489Z,3.42
2023-01-13T19:11:14.823Z,3.43
2023-01-13T19:14:37.752Z,3.41
2023-01-13T19:17:59.629Z,3.44
2023-01-13T19:21:21.688Z,3.40
2023-01-13T19:24:44.967Z,3.32
2023-01-13T19:28:06.705Z,3.44
2023-01-13T19:31:28.556Z,3.46
2023-01-13T19:34:51.384Z,3.43
2023-01-13T19:38:13.542Z,3.49
2023-01-13T19:41:54.741Z,3.34
2023-01-13T19:45:31.442Z,3.48
2023-01-13T19:48:53.511Z,3.48
2023-01-13T19:52:15.416Z,3.50
2023-01-13T19:55:37.490Z,3.52
2023-01-13T19:59:00.572Z,3.53
2023-01-13T20:02:28.653Z,3.53
2023-01-13T20:05:50.715Z,3.51
2023-01-13T20:09:12.779Z,3.54
2023-01-13T20:12:34.602Z,3.54
2023-01-13T20:15:57.466Z,3.54
2023-01-13T20:19:19.355Z,3.56
2023-01-13T20:22:42.065Z,3.53
2023-01-13T20:26:07.719Z,3.58
2023-01-13T20:29:29.407Z,3.60
2023-01-13T20:32:52.809Z,3.61
2023-01-13T20:36:26.499Z,3.62
2023-01-13T20:39:48.581Z,3.62
2023-01-13T20:43:10.621Z,3.61
2023-01-13T20:46:32.779Z,3.61
2023-01-13T20:49:56.068Z,3.62
2023-01-13T20:53:18.209Z,3.62
2023-01-13T20:56:40.682Z,3.62
2023-01-13T21:00:02.760Z,3.61
2023-01-13T21:03:24.607Z,3.62
2023-01-13T21:06:48.290Z,3.63
2023-01-13T21:10:11.907Z,3.62
2023-01-13T21:13:51.619Z,3.62
2023-01-13T21:17:38.804Z,3.58
2023-01-13T21:21:11.705Z,3.61
2023-01-13T21:24:34.950Z,3.60
2023-01-13T21:28:00.479Z,3.56
2023-01-13T21:31:22.640Z,3.58
2023-01-13T21:34:44.366Z,3.56
2023-01-13T21:38:06.415Z,3.58
2023-01-13T21:41:47.228Z,3.56
2023-01-13T21:45:28.896Z,3.57
2023-01-13T21:48:52.315Z,3.57
2023-01-13T21:52:15.421Z,3.57
2023-01-13T21:55:38.046Z,3.58
2023-01-13T21:59:01.197Z,3.59
2023-01-13T22:02:33.146Z,3.58
2023-01-13T22:05:55.891Z,3.61
2023-01-13T22:09:17.639Z,3.61
2023-01-13T22:12:40.482Z,3.56
2023-01-13T22:16:05.713Z,3.62
2023-01-13T22:19:28.195Z,3.62
2023-01-13T22:22:50.734Z,3.62
2023-01-13T22:26:13.673Z,3.61
2023-01-13T22:29:37.650Z,3.61
2023-01-13T22:33:00.909Z,3.62
2023-01-13T22:36:24.159Z,3.60
2023-01-13T22:39:45.832Z,3.49
2023-01-13T22:43:07.467Z,3.58
2023-01-13T22:46:29.409Z,3.63
2023-01-13T22:49:52.822Z,3.61
2023-01-13T22:53:14.966Z,3.62
2023-01-13T22:56:36.965Z,3.62
2023-01-13T22:59:59.068Z,3.58
2023-01-13T23:03:20.853Z,3.61
2023-01-13T23:06:43.969Z,3.61
2023-01-13T23:10:06.527Z,3.60
2023-01-13T23:13:28.166Z,3.60
2023-01-13T23:16:50.172Z,3.61
2023-01-13T23:20:12.860Z,3.58
2023-01-13T23:23:36.144Z,3.61
2023-01-13T23:26:58.165Z,3.60
2023-01-13T23:30:20.248Z,3.60
2023-01-13T23:33:43.653Z,3.57
2023-01-13T23:37:05.669Z,3.58
2023-01-13T23:40:29.244Z,3.61
2023-01-13T23:43:53.025Z,3.61
2023-01-13T23:47:15.109Z,3.60
2023-01-13T23:50:37.043Z,3.60
2023-01-13T23:54:00.078Z,3.60
2023-01-13T23:57:23.572Z,3.60
